createdAt,value
2023-03-06T00:01:33.124Z,100.00
2023-03-06T00:04:08.598Z,100.00
2023-03-06T00:06:40.865Z,100.00
2023-03-06T00:09:13.532Z,100.00
2023-03-06T00:11:48.468Z,100.00
2023-03-06T00:14:21.051Z,100.00
2023-03-06T00:16:53.404Z,100.00
2023-03-06T00:19:26.083Z,98.91
2023-03-06T00:21:58.292Z,99.80
2023-03-06T00:24:30.704Z,100.00
2023-03-06T00:27:05.568Z,100.00
2023-03-06T00:29:38.117Z,100.00
2023-03-06T00:32:11.256Z,100.00
2023-03-06T00:34:43.942Z,100.00
2023-03-06T00:37:16.187Z,100.00
2023-03-06T00:39:49.849Z,100.00
2023-03-06T00:42:24.798Z,100.00
2023-03-06T00:44:57.461Z,100.00
2023-03-06T00:47:29.861Z,100.00
2023-03-06T00:50:02.357Z,100.00
2023-03-06T00:52:34.592Z,100.00
2023-03-06T00:55:09.720Z,100.00
2023-03-06T00:57:44.709Z,100.00
2023-03-06T01:00:19.005Z,100.00
2023-03-06T01:02:51.118Z,100.00
2023-03-06T01:05:25.237Z,100.00
2023-03-06T01:07:57.398Z,100.00
2023-03-06T01:10:30.356Z,100.00
2023-03-06T01:13:05.176Z,100.00
2023-03-06T01:15:37.737Z,100.00
2023-03-06T01:18:10.053Z,100.00
2023-03-06T01:20:42.761Z,100.00
2023-03-06T01:23:14.838Z,100.00
2023-03-06T01:25:47.376Z,100.00
2023-03-06T01:31:12.564Z,100.00
2023-03-06T01:33:44.914Z,100.00
2023-03-06T01:36:17.378Z,100.00
2023-03-06T01:38:49.617Z,100.00
2023-03-06T01:41:23.065Z,100.00
2023-03-06T01:43:58.142Z,100.00
2023-03-06T01:46:42.072Z,100.00
2023-03-06T01:49:24.282Z,100.00
2023-03-06T01:52:00.661Z,100.00
2023-03-06T01:54:39.478Z,100.00
2023-03-06T01:57:17.219Z,100.00
2023-03-06T01:59:57.101Z,100.00
2023-03-06T02:02:29.952Z,100.00
2023-03-06T02:05:03.065Z,100.00
2023-03-06T02:07:36.982Z,100.00
2023-03-06T02:10:10.263Z,100.00
2023-03-06T02:12:45.124Z,100.00
2023-03-06T02:15:24.224Z,100.00
2023-03-06T02:17:56.922Z,100.00
2023-03-06T02:20:34.523Z,100.00
2023-03-06T02:23:11.843Z,100.00
2023-03-06T02:25:49.533Z,100.00
2023-03-06T02:28:24.228Z,100.00
2023-03-06T02:30:57.812Z,100.00
2023-03-06T02:33:31.842Z,100.00
2023-03-06T02:36:05.804Z,100.00
2023-03-06T02:38:43.808Z,100.00
2023-03-06T02:41:18.910Z,100.00
2023-03-06T02:43:53.468Z,100.00
2023-03-06T02:46:25.301Z,100.00
2023-03-06T02:48:57.824Z,100.00
2023-03-06T02:51:29.845Z,100.00
2023-03-06T02:54:02.022Z,100.00
2023-03-06T02:56:36.758Z,100.00
2023-03-06T02:59:10.680Z,100.00
2023-03-06T03:01:43.043Z,100.00
2023-03-06T03:04:15.719Z,100.00
2023-03-06T03:06:49.366Z,100.00
2023-03-06T03:09:21.877Z,100.00
2023-03-06T03:11:56.458Z,100.00
2023-03-06T03:14:30.136Z,100.00
2023-03-06T03:17:03.743Z,100.00
2023-03-06T03:19:37.577Z,100.00
2023-03-06T03:22:10.177Z,100.00
2023-03-06T03:24:43.945Z,100.00
2023-03-06T03:27:23.228Z,100.00
2023-03-06T03:29:55.409Z,100.00
2023-03-06T03:32:28.052Z,100.00
2023-03-06T03:35:00.980Z,100.00
2023-03-06T03:37:33.000Z,100.00
2023-03-06T03:40:07.044Z,100.00
2023-03-06T03:42:44.207Z,100.00
2023-03-06T03:45:17.365Z,100.00
2023-03-06T03:47:49.205Z,100.00
2023-03-06T03:50:21.627Z,100.00
2023-03-06T03:52:53.441Z,100.00
2023-03-06T03:55:25.721Z,100.00
2023-03-06T03:58:02.481Z,100.00
2023-03-06T04:00:35.081Z,100.00
2023-03-06T04:03:09.306Z,100.00
2023-03-06T04:05:41.402Z,100.00
2023-03-06T04:08:13.399Z,100.00
2023-03-06T04:10:45.437Z,100.00
2023-03-06T04:13:21.299Z,100.00
2023-03-06T04:15:56.689Z,100.00
2023-03-06T04:18:29.548Z,100.00
2023-03-06T04:21:01.932Z,100.00
2023-03-06T04:23:34.285Z,100.00
2023-03-06T04:26:07.523Z,100.00
2023-03-06T04:28:42.464Z,100.00
2023-03-06T04:31:15.697Z,100.00
2023-03-06T04:33:48.005Z,100.00
2023-03-06T04:36:30.201Z,100.00
2023-03-06T04:39:03.207Z,100.00
2023-03-06T04:41:35.643Z,100.00
2023-03-06T04:44:11.062Z,100.00
2023-03-06T04:46:43.641Z,100.00
2023-03-06T04:49:15.927Z,100.00
2023-03-06T04:51:48.445Z,100.00
2023-03-06T04:54:20.765Z,100.00
2023-03-06T04:56:53.493Z,100.00
2023-03-06T04:59:28.263Z,100.00
2023-03-06T05:02:00.723Z,100.00
2023-03-06T05:04:32.817Z,100.00
2023-03-06T05:07:05.340Z,100.00
2023-03-06T05:09:39.116Z,100.00
2023-03-06T05:12:12.080Z,100.00
2023-03-06T05:14:48.094Z,100.00
2023-03-06T05:17:20.799Z,100.00
2023-03-06T05:19:53.378Z,100.00
2023-03-06T05:22:26.042Z,100.00
2023-03-06T05:24:58.163Z,100.00
2023-03-06T05:27:31.216Z,100.00
2023-03-06T05:30:06.024Z,100.00
2023-03-06T05:32:38.921Z,100.00
2023-03-06T05:35:11.997Z,100.00
2023-03-06T05:37:44.760Z,100.00
2023-03-06T05:40:17.751Z,100.00
2023-03-06T05:42:50.338Z,100.00
2023-03-06T05:45:24.704Z,100.00
2023-03-06T05:47:56.828Z,100.00
2023-03-06T05:50:28.646Z,100.00
2023-03-06T05:53:01.016Z,100.00
2023-03-06T05:55:32.462Z,100.00
2023-03-06T05:58:04.190Z,100.00
2023-03-06T06:00:38.009Z,100.00
2023-03-06T06:03:09.763Z,100.00
2023-03-06T06:05:42.565Z,100.00
2023-03-06T06:08:14.252Z,100.00
2023-03-06T06:10:45.503Z,100.00
2023-03-06T06:13:17.301Z,100.00
2023-03-06T06:15:51.324Z,100.00
2023-03-06T06:18:23.049Z,100.00
2023-03-06T06:20:55.946Z,100.00
2023-03-06T06:23:27.845Z,100.00
2023-03-06T06:26:01.964Z,100.00
2023-03-06T06:28:34.061Z,100.00
2023-03-06T06:31:12.576Z,100.00
2023-03-06T06:33:45.695Z,100.00
2023-03-06T06:36:21.667Z,100.00
2023-03-06T06:38:53.754Z,100.00
2023-03-06T06:41:46.160Z,100.00
2023-03-06T06:44:17.475Z,100.00
2023-03-06T06:49:42.828Z,100.00
2023-03-06T06:52:14.219Z,100.00
2023-03-06T06:54:45.772Z,100.00
2023-03-06T06:57:17.516Z,100.00
2023-03-06T06:59:49.730Z,100.00
2023-03-06T07:02:25.617Z,100.00
2023-03-06T07:05:04.064Z,100.00
2023-03-06T07:07:38.716Z,100.00
2023-03-06T07:10:15.339Z,100.00
2023-03-06T07:12:46.792Z,100.00
2023-03-06T07:15:19.658Z,100.00
2023-03-06T07:17:53.539Z,100.00
2023-03-06T07:20:25.562Z,100.00
2023-03-06T07:22:56.864Z,100.00
2023-03-06T07:25:29.605Z,100.00
2023-03-06T07:28:00.814Z,100.00
2023-03-06T07:30:32.640Z,100.00
2023-03-06T07:33:06.398Z,100.00
2023-03-06T07:35:38.185Z,100.00
2023-03-06T07:38:09.436Z,100.00
2023-03-06T07:40:41.901Z,100.00
2023-03-06T07:43:19.400Z,100.00
2023-03-06T07:46:00.192Z,100.00
2023-03-06T07:48:34.417Z,100.00
2023-03-06T07:51:08.795Z,100.00
2023-03-06T07:53:40.256Z,100.00
2023-03-06T07:56:12.917Z,100.00
2023-03-06T07:58:47.440Z,100.00
2023-03-06T08:01:21.712Z,100.00
2023-03-06T08:03:56.666Z,100.00
2023-03-06T08:06:30.073Z,100.00
2023-03-06T08:09:01.518Z,100.00
2023-03-06T08:11:34.123Z,100.00
2023-03-06T08:14:05.815Z,100.00
2023-03-06T08:16:37.825Z,100.00
2023-03-06T08:19:11.983Z,100.00
2023-03-06T08:21:44.420Z,100.00
2023-03-06T08:24:16.994Z,100.00
2023-03-06T08:26:49.278Z,99.80
2023-03-06T08:29:20.749Z,100.00
2023-03-06T08:31:52.409Z,100.00
2023-03-06T08:34:27.547Z,100.00
2023-03-06T08:36:59.566Z,98.46
2023-03-06T08:39:30.919Z,98.96
2023-03-06T08:42:02.992Z,96.32
2023-03-06T08:44:35.059Z,99.19
2023-03-06T08:47:07.852Z,97.92
2023-03-06T08:49:42.705Z,97.44
2023-03-06T08:52:15.085Z,98.64
2023-03-06T08:54:46.879Z,99.63
2023-03-06T08:57:19.311Z,100.00
2023-03-06T08:59:50.827Z,100.00
2023-03-06T09:02:22.836Z,98.62
2023-03-06T09:04:57.373Z,100.00
2023-03-06T09:07:29.408Z,99.00
2023-03-06T09:10:01.647Z,98.79
2023-03-06T09:12:43.892Z,100.00
2023-03-06T09:15:22.161Z,99.54
2023-03-06T09:17:54.773Z,99.36
2023-03-06T09:20:29.365Z,97.24
2023-03-06T09:23:01.026Z,97.78
2023-03-06T09:25:32.712Z,97.69
2023-03-06T09:28:11.398Z,98.88
2023-03-06T09:30:44.345Z,97.88
2023-03-06T09:33:16.630Z,97.40
2023-03-06T09:35:54.176Z,99.59
2023-03-06T09:38:27.766Z,95.87
2023-03-06T09:43:42.468Z,96.60
2023-03-06T09:46:26.145Z,96.33
2023-03-06T09:49:26.082Z,97.50
2023-03-06T09:52:16.652Z,97.63
2023-03-06T09:54:50.392Z,97.65
2023-03-06T09:57:27.041Z,98.18
2023-03-06T10:00:05.196Z,97.23
2023-03-06T10:02:44.243Z,96.42
2023-03-06T10:05:22.950Z,94.11
2023-03-06T10:08:03.823Z,94.75
2023-03-06T10:10:46.472Z,93.56
2023-03-06T10:13:24.114Z,91.07
2023-03-06T10:16:05.202Z,92.52
2023-03-06T10:18:38.915Z,91.96
2023-03-06T10:21:29.903Z,94.30
2023-03-06T10:24:12.599Z,94.88
2023-03-06T10:26:52.694Z,95.64
2023-03-06T10:30:00.124Z,95.81
2023-03-06T10:32:49.167Z,96.09
2023-03-06T10:35:26.124Z,97.70
2023-03-06T10:38:04.333Z,97.57
2023-03-06T10:40:49.951Z,98.18
2023-03-06T10:43:21.364Z,97.40
2023-03-06T10:45:54.307Z,97.17
2023-03-06T10:48:28.060Z,96.84
2023-03-06T10:51:19.148Z,96.84
2023-03-06T10:53:57.120Z,98.09
2023-03-06T10:56:37.758Z,99.47
2023-03-06T10:59:14.629Z,94.30
2023-03-06T11:01:47.534Z,94.08
2023-03-06T11:07:57.882Z,94.84
2023-03-06T11:10:35.534Z,94.00
2023-03-06T11:13:25.522Z,92.08
2023-03-06T11:16:08.547Z,92.41
2023-03-06T11:18:44.494Z,91.28
2023-03-06T11:21:31.744Z,92.28
2023-03-06T11:24:12.363Z,92.59
2023-03-06T11:26:51.122Z,91.19
2023-03-06T11:29:39.570Z,88.67
2023-03-06T11:32:18.467Z,89.27
2023-03-06T11:34:54.810Z,89.07
2023-03-06T11:37:44.243Z,89.43
2023-03-06T11:40:22.910Z,89.52
2023-03-06T11:43:04.720Z,88.81
2023-03-06T11:45:47.855Z,88.23
2023-03-06T11:48:27.652Z,90.68
2023-03-06T11:51:08.831Z,90.23
2023-03-06T11:53:43.231Z,90.46
2023-03-06T11:56:31.705Z,91.82
2023-03-06T11:59:16.227Z,88.52
2023-03-06T12:01:57.751Z,88.14
2023-03-06T12:04:44.657Z,90.72
2023-03-06T12:07:32.311Z,87.73
2023-03-06T12:10:16.344Z,86.38
2023-03-06T12:16:51.971Z,87.24
2023-03-06T12:19:37.082Z,85.29
2023-03-06T12:22:33.667Z,85.33
2023-03-06T12:25:25.851Z,87.16
2023-03-06T12:28:14.516Z,84.76
2023-03-06T12:31:18.403Z,84.11
2023-03-06T12:34:04.861Z,87.03
2023-03-06T12:37:01.205Z,84.80
2023-03-06T12:39:52.633Z,88.20
2023-03-06T12:42:50.378Z,81.43
2023-03-06T12:45:37.386Z,79.31
2023-03-06T12:48:18.144Z,80.17
2023-03-06T12:50:50.704Z,81.25
2023-03-06T12:53:31.460Z,82.62
2023-03-06T12:56:04.967Z,83.35
2023-03-06T12:58:53.205Z,78.42
2023-03-06T13:01:50.692Z,78.29
2023-03-06T13:04:37.219Z,80.23
2023-03-06T13:07:23.081Z,79.07
2023-03-06T13:10:11.470Z,78.40
2023-03-06T13:13:01.254Z,78.16
2023-03-06T13:15:42.424Z,79.51
2023-03-06T13:18:52.256Z,75.40
2023-03-06T13:21:53.887Z,75.06
2023-03-06T13:24:28.402Z,74.90
2023-03-06T13:27:11.984Z,75.70
2023-03-06T13:30:19.776Z,74.96
2023-03-06T13:32:53.129Z,75.15
2023-03-06T13:35:49.199Z,74.70
2023-03-06T13:38:38.788Z,74.98
2023-03-06T13:41:29.915Z,74.03
2023-03-06T13:44:05.911Z,73.58
2023-03-06T13:46:41.990Z,69.98
2023-03-06T13:49:26.476Z,73.46
2023-03-06T13:52:23.361Z,72.51
2023-03-06T13:55:05.832Z,71.89
2023-03-06T13:58:01.285Z,73.96
2023-03-06T14:01:08.309Z,73.68
2023-03-06T14:04:22.259Z,72.45
2023-03-06T14:07:06.584Z,73.64
2023-03-06T14:09:44.386Z,72.87
2023-03-06T14:12:26.134Z,71.94
2023-03-06T14:15:00.852Z,72.15
2023-03-06T14:17:36.877Z,71.41
2023-03-06T14:20:18.108Z,72.08
2023-03-06T14:22:51.955Z,72.77
2023-03-06T14:25:32.014Z,72.78
2023-03-06T14:28:19.176Z,72.23
2023-03-06T14:30:54.537Z,71.56
2023-03-06T14:33:45.318Z,70.37
2023-03-06T14:36:20.189Z,69.05
2023-03-06T14:38:55.718Z,69.35
2023-03-06T14:41:30.285Z,69.34
2023-03-06T14:44:19.609Z,67.55
2023-03-06T14:46:55.238Z,67.26
2023-03-06T14:49:29.611Z,68.61
2023-03-06T14:52:04.145Z,69.45
2023-03-06T14:54:38.071Z,69.32
2023-03-06T14:57:16.307Z,67.73
2023-03-06T15:00:07.218Z,67.18
2023-03-06T15:02:41.933Z,66.65
2023-03-06T15:05:24.485Z,64.73
2023-03-06T15:08:00.098Z,64.57
2023-03-06T15:10:36.565Z,65.96
2023-03-06T15:13:12.546Z,65.12
2023-03-06T15:15:43.867Z,67.18
2023-03-06T15:18:39.008Z,65.54
2023-03-06T15:21:19.201Z,66.98
2023-03-06T15:23:54.700Z,66.68
2023-03-06T15:26:33.141Z,66.88
2023-03-06T15:29:19.723Z,67.37
2023-03-06T15:31:50.887Z,66.94
2023-03-06T15:34:27.696Z,65.11
2023-03-06T15:37:01.752Z,65.89
2023-03-06T15:39:41.768Z,65.39
2023-03-06T15:42:30.829Z,65.32
2023-03-06T15:45:06.544Z,65.82
2023-03-06T15:47:37.598Z,65.88
2023-03-06T15:50:17.437Z,65.49
2023-03-06T15:52:52.369Z,64.01
2023-03-06T15:55:25.863Z,63.97
2023-03-06T15:57:59.944Z,65.59
2023-03-06T16:00:34.723Z,64.75
2023-03-06T16:03:06.259Z,65.95
2023-03-06T16:05:37.721Z,66.33
2023-03-06T16:08:15.042Z,65.43
2023-03-06T16:10:48.097Z,64.25
2023-03-06T16:13:24.055Z,64.70
2023-03-06T16:15:57.691Z,64.58
2023-03-06T16:18:28.717Z,64.59
2023-03-06T16:21:00.283Z,64.76
2023-03-06T16:23:39.156Z,64.94
2023-03-06T16:26:22.312Z,64.21
2023-03-06T16:28:53.533Z,63.41
2023-03-06T16:31:25.057Z,63.23
2023-03-06T16:33:56.271Z,66.22
2023-03-06T16:36:30.301Z,67.47
2023-03-06T16:39:06.757Z,70.46
2023-03-06T16:41:38.455Z,74.37
2023-03-06T16:44:10.825Z,74.93
2023-03-06T16:46:46.083Z,76.38
2023-03-06T16:49:20.784Z,77.63
2023-03-06T16:51:53.494Z,79.30
2023-03-06T16:54:27.304Z,79.13
2023-03-06T16:56:58.770Z,79.40
2023-03-06T16:59:29.986Z,80.42
2023-03-06T17:02:01.652Z,80.51
2023-03-06T17:04:33.686Z,81.42
2023-03-06T17:07:06.008Z,81.77
2023-03-06T17:09:41.840Z,82.51
2023-03-06T17:12:13.742Z,82.33
2023-03-06T17:14:51.133Z,83.15
2023-03-06T17:17:23.969Z,84.02
2023-03-06T17:19:56.856Z,84.52
2023-03-06T17:22:30.616Z,83.76
2023-03-06T17:25:07.177Z,83.07
2023-03-06T17:27:41.140Z,83.52
2023-03-06T17:30:15.415Z,83.90
2023-03-06T17:32:48.544Z,84.20
2023-03-06T17:35:21.257Z,84.22
2023-03-06T17:46:00.171Z,86.02
2023-03-06T17:48:36.616Z,86.31
2023-03-06T17:51:11.404Z,86.24
2023-03-06T17:53:43.188Z,85.87
2023-03-06T17:56:17.013Z,86.13
2023-03-06T17:58:49.460Z,85.66
2023-03-06T18:01:27.653Z,85.09
2023-03-06T18:03:59.203Z,83.91
2023-03-06T18:06:32.094Z,88.42
2023-03-06T18:09:04.076Z,88.76
2023-03-06T18:11:37.556Z,89.91
2023-03-06T18:14:09.813Z,91.45
2023-03-06T18:16:44.548Z,91.71
2023-03-06T18:19:18.397Z,92.59
2023-03-06T18:21:50.188Z,92.23
2023-03-06T18:24:23.763Z,93.70
2023-03-06T18:26:55.539Z,94.69
2023-03-06T18:29:26.977Z,95.01
2023-03-06T18:32:02.474Z,95.33
2023-03-06T18:34:34.278Z,95.76
2023-03-06T18:40:14.147Z,96.46
2023-03-06T18:42:46.102Z,96.24
2023-03-06T18:45:17.467Z,96.68
2023-03-06T18:47:52.039Z,96.62
2023-03-06T18:50:23.711Z,95.21
2023-03-06T18:52:55.221Z,96.69
2023-03-06T18:55:26.746Z,98.21
2023-03-06T18:57:58.355Z,98.47
2023-03-06T19:00:29.695Z,98.50
2023-03-06T19:03:04.367Z,98.76
2023-03-06T19:05:36.229Z,98.57
2023-03-06T19:08:08.322Z,98.83
2023-03-06T19:10:40.963Z,99.00
2023-03-06T19:13:13.795Z,98.91
2023-03-06T19:15:47.395Z,99.10
2023-03-06T19:18:21.510Z,99.05
2023-03-06T19:20:52.972Z,99.58
2023-03-06T19:23:26.713Z,99.37
2023-03-06T19:26:10.114Z,99.78
2023-03-06T19:28:58.322Z,99.71
2023-03-06T19:31:31.198Z,99.73
2023-03-06T19:34:06.091Z,99.90
2023-03-06T19:36:39.013Z,99.97
2023-03-06T19:39:12.466Z,99.67
2023-03-06T19:41:44.348Z,99.65
2023-03-06T19:44:24.117Z,99.36
2023-03-06T19:50:21.122Z,98.78
2023-03-06T19:52:52.740Z,98.35
2023-03-06T19:55:24.891Z,98.51
2023-03-06T19:57:57.055Z,98.99
2023-03-06T20:00:28.558Z,98.93
2023-03-06T20:03:00.345Z,98.34
2023-03-06T20:05:34.397Z,98.27
2023-03-06T20:08:06.117Z,98.34
2023-03-06T20:10:40.040Z,98.83
2023-03-06T20:13:11.942Z,98.93
2023-03-06T20:15:43.675Z,99.29
2023-03-06T20:18:15.767Z,99.69
2023-03-06T20:21:00.389Z,99.98
2023-03-06T20:23:33.066Z,100.00
2023-03-06T20:26:09.676Z,100.00
2023-03-06T20:28:43.138Z,100.00
2023-03-06T20:31:16.822Z,100.00
2023-03-06T20:33:50.837Z,100.00
2023-03-06T20:36:29.167Z,100.00
2023-03-06T20:39:04.179Z,100.00
2023-03-06T20:41:36.425Z,100.00
2023-03-06T20:44:13.321Z,100.00
2023-03-06T20:46:47.906Z,100.00
2023-03-06T20:49:19.616Z,100.00
2023-03-06T20:51:53.597Z,100.00
2023-03-06T20:54:25.403Z,100.00
2023-03-06T20:56:56.876Z,100.00
2023-03-06T20:59:30.875Z,100.00
2023-03-06T21:02:03.068Z,100.00
2023-03-06T21:04:35.101Z,100.00
2023-03-06T21:07:09.381Z,100.00
2023-03-06T21:09:42.043Z,100.00
2023-03-06T21:12:13.201Z,100.00
2023-03-06T21:14:44.858Z,100.00
2023-03-06T21:17:16.273Z,100.00
2023-03-06T21:19:48.026Z,100.00
2023-03-06T21:22:22.630Z,100.00
2023-03-06T21:24:54.520Z,100.00
2023-03-06T21:27:27.623Z,100.00
2023-03-06T21:29:59.294Z,100.00
2023-03-06T21:32:30.684Z,100.00
2023-03-06T21:35:02.139Z,100.00
2023-03-06T21:37:36.125Z,100.00
2023-03-06T21:40:09.541Z,100.00
2023-03-06T21:42:40.476Z,100.00
2023-03-06T21:45:13.740Z,100.00
2023-03-06T21:47:45.342Z,100.00
2023-03-06T21:50:18.919Z,100.00
2023-03-06T21:52:53.492Z,100.00
2023-03-06T21:55:25.963Z,100.00
2023-03-06T21:57:58.423Z,100.00
2023-03-06T22:00:30.433Z,100.00
2023-03-06T22:03:03.805Z,100.00
2023-03-06T22:05:35.977Z,100.00
2023-03-06T22:08:10.415Z,100.00
2023-03-06T22:10:43.061Z,100.00
2023-03-06T22:13:15.323Z,100.00
2023-03-06T22:15:55.581Z,100.00
2023-03-06T22:18:29.421Z,100.00
2023-03-06T22:21:03.063Z,100.00
2023-03-06T22:23:37.513Z,100.00
2023-03-06T22:26:12.722Z,100.00
2023-03-06T22:28:45.406Z,100.00
2023-03-06T22:31:21.738Z,100.00
2023-03-06T22:33:55.452Z,100.00
2023-03-06T22:36:28.116Z,100.00
2023-03-06T22:39:04.417Z,100.00
2023-03-06T22:41:39.286Z,100.00
2023-03-06T22:44:10.986Z,100.00
2023-03-06T22:50:08.552Z,100.00
2023-03-06T22:52:40.546Z,100.00
2023-03-06T22:55:15.304Z,100.00
2023-03-06T22:57:48.024Z,100.00
2023-03-06T23:00:20.499Z,100.00
2023-03-06T23:02:54.452Z,100.00
2023-03-06T23:05:29.347Z,100.00
2023-03-06T23:08:03.500Z,100.00
2023-03-06T23:10:40.613Z,100.00
2023-03-06T23:13:12.586Z,100.00
2023-03-06T23:15:44.469Z,100.00
2023-03-06T23:18:17.062Z,100.00
2023-03-06T23:20:49.020Z,100.00
2023-03-06T23:23:21.360Z,100.00
2023-03-06T23:25:56.601Z,100.00
2023-03-06T23:28:29.128Z,100.00
2023-03-06T23:31:01.079Z,100.00
2023-03-06T23:33:33.718Z,100.00
2023-03-06T23:36:06.205Z,100.00
2023-03-06T23:38:39.359Z,100.00
2023-03-06T23:41:16.500Z,100.00
2023-03-06T23:43:58.021Z,100.00
2023-03-06T23:46:29.879Z,100.00
2023-03-06T23:49:02.359Z,100.00
2023-03-06T23:51:33.837Z,100.00
2023-03-06T23:54:05.490Z,100.00
2023-03-06T23:56:39.348Z,100.00
2023-03-06T23:59:13.176Z,100.00
